Time;durP1;ratioP1;P1;durP2;ratioP2;P2;SDS_P1;SDS_P2;PMS_P1;PMS_P2;Temp;Humidity;BMP_temperature;BMP_pressure;BME280_temperature;BME280_humidity;BME280_pressure;Samples;Min_cycle;Max_cycle;Signal;HPM_P1;HPM_P2
2022/09/23 00:00:48;;;;;;;6.03;4.00;;;10.20;99.90;;;;;;5049636;28;20655;-71
2022/09/23 00:03:16;;;;;;;5.53;4.03;;;10.20;99.90;;;;;;5051859;28;20210;-71
2022/09/23 00:05:44;;;;;;;5.13;4.00;;;10.10;99.90;;;;;;5051285;28;20678;-71
2022/09/23 00:08:12;;;;;;;5.10;3.80;;;10.10;99.90;;;;;;5063733;28;20213;-71
2022/09/23 00:10:39;;;;;;;7.17;3.93;;;10.10;99.90;;;;;;5050258;28;20317;-72
2022/09/23 00:13:07;;;;;;;5.00;4.10;;;10.00;99.90;;;;;;5050412;28;20202;-71
2022/09/23 00:15:38;;;;;;;5.77;4.23;;;10.00;99.90;;;;;;5045803;28;20251;-70
2022/09/23 00:18:06;;;;;;;5.13;3.80;;;10.00;99.90;;;;;;5072402;28;20209;-71
2022/09/23 00:20:34;;;;;;;5.73;3.33;;;10.00;99.90;;;;;;5059393;28;20210;-72
2022/09/23 00:23:02;;;;;;;4.80;3.53;;;10.00;99.90;;;;;;5059773;28;20229;-71
2022/09/23 00:25:29;;;;;;;5.10;3.87;;;10.00;99.90;;;;;;5054182;28;20210;-70
2022/09/23 00:27:57;;;;;;;5.07;3.67;;;9.90;99.90;;;;;;5055514;28;20225;-72
2022/09/23 00:30:24;;;;;;;6.50;4.33;;;9.90;99.90;;;;;;5054739;28;20205;-71
2022/09/23 00:32:51;;;;;;;7.77;3.90;;;9.90;99.90;;;;;;5061250;28;20689;-72
2022/09/23 00:35:18;;;;;;;5.20;3.93;;;9.80;99.90;;;;;;5069088;28;20239;-72
2022/09/23 00:37:45;;;;;;;6.40;4.23;;;9.80;99.90;;;;;;5055247;28;20805;-72
2022/09/23 00:40:16;;;;;;;4.97;3.80;;;9.80;99.90;;;;;;5053687;28;20214;-71
2022/09/23 00:42:47;;;;;;;5.47;4.10;;;9.80;99.90;;;;;;5054172;28;20251;-71
2022/09/23 00:45:14;;;;;;;6.37;4.30;;;9.80;99.90;;;;;;5063216;28;20626;-71
2022/09/23 00:47:46;;;;;;;5.10;4.10;;;9.70;99.90;;;;;;5070132;28;20237;-72
2022/09/23 00:50:17;;;;;;;5.20;3.67;;;9.70;99.90;;;;;;5052789;28;20421;-72
2022/09/23 00:52:45;;;;;;;6.93;4.40;;;9.70;99.90;;;;;;5048340;28;20202;-72
2022/09/23 00:55:17;;;;;;;6.10;4.33;;;9.70;99.90;;;;;;5055671;28;20569;-72
2022/09/23 00:57:46;;;;;;;8.23;4.63;;;9.70;99.90;;;;;;5056781;28;20230;-71
2022/09/23 01:00:13;;;;;;;6.40;4.30;;;9.70;99.90;;;;;;5056909;28;20197;-71
2022/09/23 01:02:40;;;;;;;6.90;4.03;;;9.70;99.90;;;;;;5055865;28;20198;-71
2022/09/23 01:05:08;;;;;;;8.50;4.60;;;9.70;99.90;;;;;;5055719;28;20301;-72
2022/09/23 01:07:35;;;;;;;6.70;4.60;;;9.70;99.90;;;;;;5062954;28;20538;-71
2022/09/23 01:10:02;;;;;;;6.10;4.20;;;9.80;99.90;;;;;;5057269;28;20210;-71
2022/09/23 01:12:52;;;;;;;6.87;4.17;;;9.80;99.90;;;;;;5060077;28;20197;-72
2022/09/23 01:15:23;;;;;;;7.40;4.63;;;9.80;99.90;;;;;;5052583;28;20197;-70
2022/09/23 01:17:59;;;;;;;6.07;4.10;;;9.80;99.90;;;;;;5056332;28;20202;-70
2022/09/23 01:20:54;;;;;;;5.97;4.53;;;9.90;99.90;;;;;;5055372;28;20197;-71
2022/09/23 01:23:55;;;;;;;5.20;4.10;;;9.90;99.90;;;;;;5022636;28;20229;-70
2022/09/23 01:26:43;;;;;;;5.03;4.53;;;9.90;99.90;;;;;;5046568;28;20209;-70
2022/09/23 01:29:32;;;;;;;8.40;4.53;;;9.90;99.90;;;;;;5053157;28;20201;-70
2022/09/23 01:32:03;;;;;;;6.70;4.43;;;10.00;99.90;;;;;;5055010;28;20236;-70
2022/09/23 01:34:36;;;;;;;5.77;4.27;;;9.90;99.90;;;;;;5052089;28;20198;-71
2022/09/23 01:37:10;;;;;;;5.80;4.17;;;9.90;99.90;;;;;;5051337;28;20230;-71
2022/09/23 01:39:40;;;;;;;6.10;4.13;;;9.80;99.90;;;;;;5052799;28;20229;-70
2022/09/23 01:42:16;;;;;;;4.57;3.93;;;9.90;99.90;;;;;;5050348;28;20737;-72
2022/09/23 01:44:48;;;;;;;5.60;4.20;;;9.80;99.90;;;;;;5057136;28;20205;-71
2022/09/23 01:47:19;;;;;;;6.17;4.47;;;9.80;99.90;;;;;;5060723;28;20305;-69
2022/09/23 01:49:50;;;;;;;6.70;4.20;;;9.80;99.90;;;;;;5066950;28;20256;-73
2022/09/23 01:52:24;;;;;;;7.07;4.73;;;9.80;99.90;;;;;;5058268;28;20240;-73
2022/09/23 01:54:57;;;;;;;5.07;4.13;;;9.80;99.90;;;;;;5052598;28;20201;-73
2022/09/23 01:57:29;;;;;;;7.77;3.87;;;9.80;99.90;;;;;;5053476;28;20206;-73
2022/09/23 02:00:00;;;;;;;7.23;4.70;;;9.80;99.90;;;;;;5060047;28;20201;-73
2022/09/23 02:02:32;;;;;;;6.53;4.57;;;9.80;99.90;;;;;;5057849;28;20205;-72
2022/09/23 02:05:03;;;;;;;5.50;4.30;;;9.80;99.90;;;;;;5054833;28;20836;-73
2022/09/23 02:07:36;;;;;;;5.43;4.10;;;9.80;99.90;;;;;;5057550;28;20213;-73
2022/09/23 02:10:10;;;;;;;4.87;4.17;;;9.80;99.90;;;;;;5050196;28;20683;-73
2022/09/23 02:12:41;;;;;;;5.27;4.07;;;9.80;99.90;;;;;;5060477;28;20723;-73
2022/09/23 02:15:11;;;;;;;5.33;4.47;;;9.80;99.90;;;;;;5058418;28;20658;-72
2022/09/23 02:17:47;;;;;;;6.37;4.03;;;9.80;99.90;;;;;;5054445;28;20769;-72
2022/09/23 02:20:19;;;;;;;6.27;4.40;;;9.70;99.90;;;;;;5053874;28;20264;-72
2022/09/23 02:22:51;;;;;;;4.53;4.13;;;9.70;99.90;;;;;;5056055;28;20241;-73
2022/09/23 02:25:20;;;;;;;7.33;4.20;;;9.70;99.90;;;;;;5048259;28;20198;-73
2022/09/23 02:27:56;;;;;;;4.03;3.60;;;9.70;99.90;;;;;;5053531;28;20686;-74
2022/09/23 02:30:28;;;;;;;7.47;4.50;;;9.60;99.90;;;;;;5051510;28;20197;-75
2022/09/23 02:33:03;;;;;;;5.00;4.50;;;9.60;99.90;;;;;;5053449;28;20655;-74
2022/09/23 02:35:36;;;;;;;9.60;4.87;;;9.60;99.90;;;;;;5050205;28;20201;-73
2022/09/23 02:38:14;;;;;;;5.33;4.43;;;9.50;99.90;;;;;;5052210;28;20233;-74
2022/09/23 02:40:50;;;;;;;6.80;4.57;;;9.50;99.90;;;;;;5051882;28;20298;-73
2022/09/23 02:43:22;;;;;;;6.73;4.20;;;9.50;99.90;;;;;;5049335;28;20206;-73
2022/09/23 02:45:50;;;;;;;5.83;4.30;;;9.50;99.90;;;;;;5059650;28;20229;-73
2022/09/23 02:48:24;;;;;;;7.47;4.70;;;9.50;99.90;;;;;;5054270;28;20236;-74
2022/09/23 02:50:51;;;;;;;6.77;4.33;;;9.40;99.90;;;;;;5054827;28;20197;-73
2022/09/23 02:53:18;;;;;;;8.30;4.73;;;9.40;99.90;;;;;;5051461;28;20623;-74
2022/09/23 02:55:45;;;;;;;7.83;5.57;;;9.40;99.90;;;;;;5049500;28;20205;-73
2022/09/23 02:58:13;;;;;;;9.40;5.23;;;9.40;99.90;;;;;;5061976;28;20213;-74
2022/09/23 03:00:50;;;;;;;5.60;4.80;;;9.40;99.90;;;;;;5059137;28;20220;-72
2022/09/23 03:03:43;;;;;;;7.17;4.57;;;9.40;99.90;;;;;;5055349;28;20540;-72
2022/09/23 03:06:22;;;;;;;6.20;4.60;;;9.40;99.90;;;;;;5056526;28;20205;-72
2022/09/23 03:08:54;;;;;;;6.63;4.87;;;9.40;99.90;;;;;;5048585;28;20631;-73
2022/09/23 03:11:21;;;;;;;5.10;4.53;;;9.40;99.90;;;;;;5052166;28;20201;-73
2022/09/23 03:13:55;;;;;;;6.20;5.00;;;9.40;99.90;;;;;;5060184;28;20216;-73
2022/09/23 03:16:31;;;;;;;6.20;4.50;;;9.40;99.90;;;;;;5053888;28;20201;-74
2022/09/23 03:19:11;;;;;;;8.23;4.60;;;9.40;99.90;;;;;;5062622;28;20205;-73
2022/09/23 03:21:45;;;;;;;9.13;5.17;;;9.40;99.90;;;;;;5061275;28;20237;-73
2022/09/23 03:24:14;;;;;;;7.43;4.53;;;9.40;99.90;;;;;;5050806;28;20197;-73
2022/09/23 03:26:45;;;;;;;7.63;5.40;;;9.50;99.90;;;;;;5049206;28;20702;-73
2022/09/23 03:29:14;;;;;;;6.43;4.57;;;9.50;99.90;;;;;;5045852;28;20209;-74
2022/09/23 03:31:42;;;;;;;5.83;4.43;;;9.50;99.90;;;;;;5063713;28;20217;-74
2022/09/23 03:34:17;;;;;;;6.07;4.40;;;9.50;99.90;;;;;;5054130;28;20674;-74
2022/09/23 03:36:52;;;;;;;7.53;4.83;;;9.50;99.90;;;;;;5052085;28;20247;-73
2022/09/23 03:39:32;;;;;;;7.40;4.90;;;9.50;99.90;;;;;;5047375;28;20198;-72
2022/09/23 03:42:03;;;;;;;5.90;4.70;;;9.50;99.90;;;;;;5050324;28;20210;-73
2022/09/23 03:44:30;;;;;;;6.73;4.90;;;9.40;99.90;;;;;;5053640;28;20213;-74
2022/09/23 03:46:59;;;;;;;5.37;4.37;;;9.40;99.90;;;;;;5051144;28;20202;-72
2022/09/23 03:49:31;;;;;;;8.80;4.50;;;9.40;99.90;;;;;;5049106;28;20212;-73
2022/09/23 03:51:59;;;;;;;6.20;4.57;;;9.40;99.90;;;;;;5055425;28;20197;-73
2022/09/23 03:54:28;;;;;;;10.20;5.07;;;9.40;99.90;;;;;;5047963;28;20258;-73
2022/09/23 03:56:57;;;;;;;7.50;4.73;;;9.30;99.90;;;;;;5049558;28;20217;-73
2022/09/23 03:59:24;;;;;;;11.40;5.83;;;9.30;99.90;;;;;;5056450;28;20281;-74
2022/09/23 04:01:51;;;;;;;8.73;5.30;;;9.20;99.90;;;;;;5068320;28;20223;-73
2022/09/23 04:04:18;;;;;;;12.63;5.53;;;9.20;99.90;;;;;;5041994;28;20578;-74
2022/09/23 04:06:46;;;;;;;7.60;5.00;;;9.20;99.90;;;;;;5058781;28;20217;-74
2022/09/23 04:09:13;;;;;;;6.77;4.70;;;9.10;99.90;;;;;;5055456;28;20233;-73
2022/09/23 04:11:40;;;;;;;14.97;5.57;;;9.10;99.90;;;;;;5056892;28;20237;-73
2022/09/23 04:14:07;;;;;;;8.47;5.63;;;9.10;99.90;;;;;;5063614;28;20220;-73
2022/09/23 04:16:34;;;;;;;13.17;6.20;;;9.00;99.90;;;;;;5063117;28;20206;-74
2022/09/23 04:19:00;;;;;;;10.03;4.80;;;9.00;99.90;;;;;;5055323;28;20213;-73
2022/09/23 04:21:30;;;;;;;15.43;5.60;;;9.00;99.90;;;;;;5056203;28;20750;-74
2022/09/23 04:23:58;;;;;;;14.33;6.87;;;9.00;99.90;;;;;;5054044;28;20205;-73
2022/09/23 04:26:25;;;;;;;10.13;5.77;;;9.00;99.90;;;;;;5055112;28;20205;-75
2022/09/23 04:28:51;;;;;;;10.13;5.20;;;8.90;99.90;;;;;;5053896;28;20226;-73
2022/09/23 04:31:18;;;;;;;13.63;5.53;;;8.90;99.90;;;;;;5054820;28;20213;-73
2022/09/23 04:33:45;;;;;;;13.60;5.37;;;8.90;99.90;;;;;;5054449;28;20202;-73
2022/09/23 04:36:12;;;;;;;12.77;6.27;;;8.90;99.90;;;;;;5041392;28;20218;-73
2022/09/23 04:38:38;;;;;;;15.97;6.13;;;8.80;99.90;;;;;;5054202;28;20260;-74
2022/09/23 04:41:09;;;;;;;9.87;5.33;;;8.80;99.90;;;;;;5055191;28;20206;-74
2022/09/23 04:43:36;;;;;;;11.23;5.97;;;8.80;99.90;;;;;;5054613;28;20229;-73
2022/09/23 04:46:05;;;;;;;15.13;6.10;;;8.80;99.90;;;;;;5047925;28;20217;-73
2022/09/23 04:48:33;;;;;;;14.00;6.37;;;8.80;99.90;;;;;;5063899;28;20217;-73
2022/09/23 04:51:02;;;;;;;13.57;5.80;;;8.80;99.90;;;;;;5054380;28;20201;-74
2022/09/23 04:53:29;;;;;;;13.70;6.10;;;8.80;99.90;;;;;;5062072;28;20255;-73
2022/09/23 04:56:01;;;;;;;19.30;6.63;;;8.80;99.90;;;;;;5060717;28;20206;-73
2022/09/23 04:58:29;;;;;;;21.07;6.30;;;8.90;99.90;;;;;;5053349;28;20206;-73
2022/09/23 05:00:59;;;;;;;14.07;5.97;;;8.90;99.90;;;;;;5051244;28;20202;-73
2022/09/23 05:03:34;;;;;;;18.20;6.43;;;8.90;99.90;;;;;;5077726;28;20212;-70
2022/09/23 05:06:00;;;;;;;9.93;5.63;;;9.00;99.90;;;;;;5061197;28;20259;-71
2022/09/23 05:08:27;;;;;;;19.00;6.47;;;9.00;99.90;;;;;;5055007;28;20339;-71
2022/09/23 05:10:57;;;;;;;12.93;6.63;;;9.00;99.90;;;;;;5043370;28;20210;-71
2022/09/23 05:13:23;;;;;;;13.77;6.60;;;9.00;99.90;;;;;;5054599;28;20723;-71
2022/09/23 05:15:57;;;;;;;13.33;6.97;;;9.00;99.90;;;;;;5051364;28;20212;-71
2022/09/23 05:18:24;;;;;;;19.87;6.63;;;9.00;99.90;;;;;;5050107;28;20202;-71
2022/09/23 05:20:54;;;;;;;10.17;5.90;;;9.10;99.90;;;;;;5032819;28;20207;-71
2022/09/23 05:23:21;;;;;;;11.33;5.60;;;9.10;99.90;;;;;;5048996;28;20225;-73
2022/09/23 05:25:58;;;;;;;12.07;5.57;;;9.10;99.90;;;;;;5051757;28;20546;-73
2022/09/23 05:28:26;;;;;;;9.70;5.93;;;9.20;99.90;;;;;;5059779;28;20220;-73
2022/09/23 05:31:03;;;;;;;13.00;6.20;;;9.20;99.90;;;;;;5058559;28;20220;-71
2022/09/23 05:33:30;;;;;;;13.03;5.90;;;9.20;99.90;;;;;;5066837;28;20292;-72
2022/09/23 05:35:57;;;;;;;8.83;6.37;;;9.20;99.90;;;;;;5056663;28;20291;-72
2022/09/23 05:38:24;;;;;;;10.27;5.97;;;9.30;99.90;;;;;;5051272;28;20320;-70
2022/09/23 05:40:59;;;;;;;13.57;6.93;;;9.30;99.90;;;;;;5049538;28;20209;-72
2022/09/23 05:43:26;;;;;;;11.60;6.47;;;9.30;99.90;;;;;;5049275;28;20209;-71
2022/09/23 05:46:03;;;;;;;11.10;5.90;;;9.30;99.90;;;;;;5057827;28;20206;-70
2022/09/23 05:48:31;;;;;;;9.33;6.23;;;9.30;99.90;;;;;;5055941;28;20220;-70
2022/09/23 05:50:58;;;;;;;10.27;7.60;;;9.20;99.90;;;;;;5046107;28;20213;-67
2022/09/23 05:53:26;;;;;;;9.73;6.27;;;9.20;99.90;;;;;;5047481;28;20604;-70
2022/09/23 05:55:53;;;;;;;10.33;7.13;;;9.20;99.90;;;;;;5050720;28;20597;-70
2022/09/23 05:58:20;;;;;;;8.73;6.13;;;9.30;99.90;;;;;;5042651;28;20260;-71
2022/09/23 06:00:48;;;;;;;12.37;7.47;;;9.40;99.90;;;;;;5047615;28;20237;-70
2022/09/23 06:03:17;;;;;;;9.97;6.27;;;9.50;99.90;;;;;;5050492;28;20659;-70
2022/09/23 06:05:44;;;;;;;9.40;6.63;;;9.50;99.90;;;;;;5048950;28;20213;-69
2022/09/23 06:08:12;;;;;;;9.97;6.97;;;9.60;99.90;;;;;;5047764;28;20221;-69
2022/09/23 06:10:40;;;;;;;9.87;6.57;;;9.70;99.90;;;;;;5054937;28;20206;-69
2022/09/23 06:13:07;;;;;;;12.97;7.17;;;9.80;99.90;;;;;;5050330;28;20585;-70
2022/09/23 06:15:34;;;;;;;9.50;6.93;;;9.90;99.90;;;;;;5057338;28;20213;-71
2022/09/23 06:18:01;;;;;;;12.67;7.10;;;10.00;99.90;;;;;;5061546;28;20232;-71
2022/09/23 06:20:29;;;;;;;12.57;7.33;;;10.20;99.90;;;;;;5052406;28;20560;-72
2022/09/23 06:23:02;;;;;;;14.60;6.83;;;10.30;99.90;;;;;;5052033;28;20236;-70
2022/09/23 06:25:29;;;;;;;12.73;7.10;;;10.30;99.90;;;;;;5052911;28;20202;-70
2022/09/23 06:27:58;;;;;;;12.50;6.33;;;10.50;99.90;;;;;;5050424;28;20546;-70
2022/09/23 06:30:26;;;;;;;12.37;6.90;;;10.50;99.90;;;;;;5050234;28;20257;-70
2022/09/23 06:32:55;;;;;;;11.43;6.33;;;10.60;99.90;;;;;;5050313;28;20287;-70
2022/09/23 06:35:23;;;;;;;9.03;6.27;;;10.70;99.90;;;;;;5068144;28;20209;-71
2022/09/23 06:37:52;;;;;;;13.50;5.63;;;10.80;99.90;;;;;;5060307;28;20325;-70
2022/09/23 06:40:19;;;;;;;11.50;5.97;;;10.80;99.90;;;;;;5056459;28;20220;-71
2022/09/23 06:42:46;;;;;;;12.93;6.33;;;10.80;99.90;;;;;;5060221;28;20202;-71
2022/09/23 06:45:14;;;;;;;9.23;5.40;;;10.90;99.90;;;;;;5049142;28;20309;-71
2022/09/23 06:47:42;;;;;;;8.80;5.03;;;10.90;99.90;;;;;;5052906;28;20237;-71
2022/09/23 06:50:11;;;;;;;8.87;5.07;;;10.90;99.90;;;;;;5055476;28;20251;-72
2022/09/23 06:52:38;;;;;;;7.53;5.00;;;11.00;99.90;;;;;;5047780;28;20224;-70
2022/09/23 06:55:07;;;;;;;8.13;5.40;;;11.10;99.90;;;;;;5047960;28;20224;-71
2022/09/23 06:57:34;;;;;;;6.57;4.73;;;11.10;99.90;;;;;;5051871;28;20206;-70
2022/09/23 07:00:01;;;;;;;7.63;4.70;;;11.20;99.90;;;;;;5047544;28;20202;-73
2022/09/23 07:02:30;;;;;;;8.97;4.47;;;11.30;99.90;;;;;;5051079;28;20206;-75
2022/09/23 07:04:56;;;;;;;5.53;4.27;;;11.40;99.90;;;;;;5046104;28;20209;-74
2022/09/23 07:07:25;;;;;;;5.13;4.30;;;11.50;99.90;;;;;;5061149;28;20201;-74
2022/09/23 07:09:52;;;;;;;5.67;3.97;;;11.60;99.90;;;;;;5048960;28;20321;-74
2022/09/23 07:12:21;;;;;;;7.17;4.50;;;11.70;99.90;;;;;;5046982;28;20352;-75
2022/09/23 07:14:48;;;;;;;5.77;4.00;;;11.90;99.90;;;;;;5058627;28;20284;-75
2022/09/23 07:17:14;;;;;;;5.67;4.60;;;12.10;99.90;;;;;;5047920;28;20217;-74
2022/09/23 07:19:42;;;;;;;6.23;4.73;;;12.20;99.90;;;;;;5056105;28;20205;-73
2022/09/23 07:22:09;;;;;;;6.90;5.17;;;12.40;99.90;;;;;;5053534;28;20218;-74
2022/09/23 07:24:36;;;;;;;9.83;5.60;;;12.50;99.90;;;;;;5049851;28;20205;-73
2022/09/23 07:27:02;;;;;;;6.90;5.90;;;12.50;99.90;;;;;;5060846;28;20229;-74
2022/09/23 07:29:31;;;;;;;8.97;5.60;;;12.60;99.90;;;;;;5050789;28;20222;-75
2022/09/23 07:31:58;;;;;;;7.43;5.63;;;12.80;99.90;;;;;;5053752;28;20210;-75
2022/09/23 07:34:25;;;;;;;8.03;5.47;;;12.90;99.90;;;;;;5062119;28;20212;-75
2022/09/23 07:36:53;;;;;;;6.17;4.80;;;13.00;99.90;;;;;;5061184;28;20234;-74
2022/09/23 07:39:23;;;;;;;5.67;4.90;;;13.20;99.90;;;;;;5066292;28;20233;-75
2022/09/23 07:41:50;;;;;;;9.00;4.93;;;13.30;99.90;;;;;;5060298;28;20286;-76
2022/09/23 07:44:18;;;;;;;8.00;5.57;;;13.40;99.90;;;;;;5062381;28;20213;-73
2022/09/23 07:46:47;;;;;;;6.87;5.63;;;13.50;99.90;;;;;;5056065;28;20217;-74
2022/09/23 07:49:14;;;;;;;6.70;5.47;;;13.50;99.90;;;;;;5054109;28;20317;-71
2022/09/23 07:51:45;;;;;;;6.50;5.07;;;13.60;99.90;;;;;;5052167;28;20210;-72
2022/09/23 07:54:15;;;;;;;10.57;5.83;;;13.60;99.90;;;;;;5059625;28;20659;-72
2022/09/23 07:56:43;;;;;;;6.13;5.50;;;13.70;99.90;;;;;;5047016;28;20232;-72
2022/09/23 07:59:14;;;;;;;7.27;5.47;;;13.80;99.90;;;;;;5055418;28;20560;-71
2022/09/23 08:01:42;;;;;;;8.53;5.97;;;14.00;99.90;;;;;;5053271;28;20202;-73
2022/09/23 08:04:15;;;;;;;8.97;6.10;;;14.00;99.90;;;;;;5047644;28;20217;-75
2022/09/23 08:06:43;;;;;;;9.70;5.47;;;14.10;99.90;;;;;;5047338;28;20272;-73
2022/09/23 08:09:10;;;;;;;5.73;4.87;;;14.10;99.90;;;;;;5050921;28;20225;-72
2022/09/23 08:11:40;;;;;;;6.57;4.87;;;14.30;99.90;;;;;;5052902;28;20578;-72
2022/09/23 08:14:07;;;;;;;7.60;4.77;;;14.40;99.90;;;;;;5044434;28;21703;-70
2022/09/23 08:16:34;;;;;;;5.37;4.73;;;14.50;99.90;;;;;;5048701;28;20198;-70
2022/09/23 08:19:01;;;;;;;5.67;4.70;;;14.50;99.90;;;;;;5046538;28;20205;-71
2022/09/23 08:21:29;;;;;;;8.97;5.70;;;14.60;99.90;;;;;;5043942;28;20206;-70
2022/09/23 08:23:56;;;;;;;6.63;5.17;;;14.70;99.90;;;;;;5045512;28;20209;-75
2022/09/23 08:26:23;;;;;;;7.67;5.83;;;14.90;99.90;;;;;;5052722;28;20209;-75
2022/09/23 08:28:52;;;;;;;5.20;4.63;;;15.10;99.90;;;;;;5050619;28;20296;-75
2022/09/23 08:31:20;;;;;;;6.03;4.70;;;15.20;99.90;;;;;;5058607;28;20237;-75
2022/09/23 08:33:46;;;;;;;7.03;5.43;;;15.30;99.90;;;;;;5056553;28;20209;-75
2022/09/23 08:36:13;;;;;;;5.07;4.57;;;15.30;99.90;;;;;;5057001;28;20729;-75
2022/09/23 08:38:41;;;;;;;5.77;4.80;;;15.50;99.90;;;;;;5049275;28;20251;-76
2022/09/23 08:41:19;;;;;;;6.57;4.23;;;15.50;99.90;;;;;;5046429;28;20212;-71
2022/09/23 08:43:49;;;;;;;7.70;4.67;;;15.70;99.90;;;;;;5049776;28;20224;-73
2022/09/23 08:46:22;;;;;;;4.77;4.23;;;15.80;99.90;;;;;;5059951;28;20213;-70
2022/09/23 08:48:49;;;;;;;5.33;4.60;;;16.00;99.90;;;;;;5051063;28;20569;-73
2022/09/23 08:51:23;;;;;;;4.40;4.00;;;16.20;99.90;;;;;;5053718;28;20245;-74
2022/09/23 08:53:52;;;;;;;4.57;3.87;;;16.30;99.90;;;;;;5057029;28;20250;-73
2022/09/23 08:56:22;;;;;;;4.10;3.53;;;16.60;99.90;;;;;;5055345;28;20266;-70
2022/09/23 08:58:56;;;;;;;3.27;2.97;;;17.00;99.90;;;;;;5050340;28;20205;-77
2022/09/23 09:01:29;;;;;;;4.40;2.95;;;17.30;99.90;;;;;;5052018;28;20673;-72
2022/09/23 09:03:58;;;;;;;3.28;2.45;;;17.70;99.90;;;;;;5049266;28;20616;-73
2022/09/23 09:06:30;;;;;;;2.65;2.45;;;18.50;99.90;;;;;;5059286;28;20400;-72
2022/09/23 09:09:01;;;;;;;6.45;3.38;;;19.60;99.90;;;;;;5060384;28;20911;-71
2022/09/23 09:11:35;;;;;;;6.82;3.00;;;20.30;99.10;;;;;;5049268;28;20205;-71
2022/09/23 09:14:15;;;;;;;4.57;2.67;;;20.20;97.50;;;;;;5059004;28;20210;-72
2022/09/23 09:16:55;;;;;;;4.82;2.58;;;20.00;98.70;;;;;;5054321;28;20240;-71
2022/09/23 09:19:54;;;;;;;9.68;4.32;;;21.20;97.80;;;;;;5048570;28;20460;-72
2022/09/23 09:22:27;;;;;;;3.95;2.20;;;24.30;91.40;;;;;;5048236;28;20249;-70
2022/09/23 09:25:03;;;;;;;1.60;1.45;;;28.50;68.30;;;;;;5043250;28;20221;-74
2022/09/23 09:27:32;;;;;;;1.95;1.50;;;30.10;53.60;;;;;;5057239;28;20201;-75
2022/09/23 09:30:01;;;;;;;2.55;1.83;;;28.90;51.10;;;;;;5052249;28;20237;-74
2022/09/23 09:32:39;;;;;;;2.70;2.30;;;27.10;52.10;;;;;;5059066;28;20214;-73
2022/09/23 09:35:18;;;;;;;2.80;1.88;;;25.20;55.00;;;;;;5057509;28;20427;-76
2022/09/23 09:37:47;;;;;;;1.52;1.20;;;23.80;61.20;;;;;;5056891;28;20602;-74
2022/09/23 09:40:18;;;;;;;3.38;0.80;;;26.00;59.10;;;;;;5059906;28;20210;-73
2022/09/23 09:42:48;;;;;;;1.13;1.00;;;29.40;51.20;;;;;;5063326;28;20226;-73
2022/09/23 09:45:25;;;;;;;1.00;0.85;;;32.90;46.00;;;;;;5067678;28;20204;-74
2022/09/23 09:48:01;;;;;;;3.10;1.00;;;35.80;40.90;;;;;;5059472;28;20565;-75
2022/09/23 09:50:44;;;;;;;1.08;0.63;;;36.40;37.60;;;;;;5066227;28;20209;-74
2022/09/23 09:53:23;;;;;;;1.95;0.70;;;36.50;35.70;;;;;;5056499;28;20427;-73
2022/09/23 09:56:01;;;;;;;2.08;0.90;;;37.50;34.50;;;;;;5057657;28;20220;-74
2022/09/23 09:58:32;;;;;;;2.53;1.08;;;39.20;32.40;;;;;;5053350;28;20201;-73
2022/09/23 10:01:00;;;;;;;3.20;1.92;;;40.70;31.40;;;;;;5058722;28;20198;-74
2022/09/23 10:03:43;;;;;;;0.60;0.60;;;41.60;29.80;;;;;;5053646;28;20220;-74
2022/09/23 10:06:16;;;;;;;1.48;0.60;;;41.80;28.90;;;;;;5047249;28;20194;-73
2022/09/23 10:08:51;;;;;;;1.48;0.77;;;41.70;28.30;;;;;;5053281;28;20197;-73
2022/09/23 10:11:19;;;;;;;1.38;1.02;;;41.30;29.10;;;;;;5055613;28;20535;-74
2022/09/23 10:14:04;;;;;;;2.92;0.80;;;41.70;28.00;;;;;;5056644;28;20209;-74
2022/09/23 10:16:33;;;;;;;2.58;1.30;;;42.60;27.50;;;;;;5051571;28;20193;-73
2022/09/23 10:19:01;;;;;;;0.75;0.68;;;43.70;26.80;;;;;;5051840;28;20209;-74
2022/09/23 10:21:34;;;;;;;0.75;0.60;;;44.60;26.30;;;;;;5052060;28;20595;-73
2022/09/23 10:24:04;;;;;;;0.70;0.70;;;44.30;25.30;;;;;;5049541;28;20259;-74
2022/09/23 10:26:35;;;;;;;0.65;0.60;;;43.30;25.80;;;;;;5054991;28;20201;-72
2022/09/23 10:29:03;;;;;;;0.70;0.70;;;43.40;26.00;;;;;;5048062;28;20264;-74
2022/09/23 10:31:32;;;;;;;1.75;1.20;;;43.50;25.80;;;;;;5063076;28;20286;-73
2022/09/23 10:34:01;;;;;;;1.08;0.75;;;43.90;25.80;;;;;;5057363;28;20188;-71
2022/09/23 10:36:30;;;;;;;0.73;0.60;;;45.10;25.30;;;;;;5051804;28;20676;-72
2022/09/23 10:47:52;;;;;;;1.60;1.10;;;49.80;22.80;;;;;;5052393;28;20231;-73
2022/09/23 10:50:31;;;;;;;1.80;0.88;;;49.30;22.20;;;;;;5049627;28;20233;-73
2022/09/23 10:53:08;;;;;;;0.80;0.80;;;47.40;23.10;;;;;;5054914;28;20216;-72
2022/09/23 10:55:50;;;;;;;0.85;0.85;;;47.30;23.00;;;;;;5056869;28;20948;-73
2022/09/23 10:58:34;;;;;;;1.05;0.95;;;48.00;22.80;;;;;;5050761;28;20209;-72
2022/09/23 11:01:13;;;;;;;2.33;0.90;;;48.90;22.50;;;;;;5046811;28;20212;-71
2022/09/23 11:04:03;;;;;;;1.70;1.00;;;49.40;22.00;;;;;;5049255;28;20239;-74
2022/09/23 11:06:42;;;;;;;0.90;0.75;;;48.30;22.30;;;;;;5044986;28;20206;-70
2022/09/23 11:09:21;;;;;;;1.10;0.70;;;47.80;22.30;;;;;;5051924;28;20201;-74
2022/09/23 11:12:01;;;;;;;0.90;0.90;;;47.60;22.50;;;;;;5047609;28;20197;-71
2022/09/23 11:14:50;;;;;;;0.85;0.70;;;47.70;22.50;;;;;;5048206;28;20575;-73
2022/09/23 11:17:50;;;;;;;4.20;1.25;;;46.30;21.90;;;;;;5052104;28;20241;-71
2022/09/23 11:20:33;;;;;;;1.35;0.77;;;43.20;23.10;;;;;;5052467;28;20213;-73
2022/09/23 11:23:20;;;;;;;0.85;0.73;;;40.00;24.30;;;;;;5050186;28;20229;-73
2022/09/23 11:25:55;;;;;;;0.70;0.70;;;39.00;26.70;;;;;;5049448;28;20213;-72
2022/09/23 11:28:39;;;;;;;0.98;0.70;;;40.20;25.70;;;;;;5046218;28;20329;-70
2022/09/23 11:31:20;;;;;;;1.30;1.00;;;42.20;24.70;;;;;;5047635;28;20218;-72
2022/09/23 11:34:00;;;;;;;2.92;0.63;;;43.90;24.00;;;;;;5045444;28;20210;-72
2022/09/23 11:36:32;;;;;;;1.15;0.68;;;43.90;23.30;;;;;;5051144;28;20209;-70
2022/09/23 11:39:05;;;;;;;1.17;0.70;;;43.40;23.90;;;;;;5049817;28;20243;-71
2022/09/23 11:41:36;;;;;;;2.25;0.73;;;42.60;23.00;;;;;;5043642;28;20205;-71
2022/09/23 11:44:10;;;;;;;1.92;0.63;;;40.40;23.70;;;;;;5044336;28;20213;-71
2022/09/23 11:46:43;;;;;;;0.80;0.80;;;37.50;25.20;;;;;;5050250;28;20206;-70
2022/09/23 11:49:16;;;;;;;3.28;0.55;;;35.90;27.60;;;;;;5045415;28;20194;-72
2022/09/23 11:51:56;;;;;;;2.67;0.73;;;34.20;27.70;;;;;;5048802;28;20206;-79
2022/09/23 11:54:29;;;;;;;1.55;0.77;;;32.70;29.10;;;;;;5051383;28;20202;-77
2022/09/23 11:57:01;;;;;;;1.75;1.00;;;31.30;31.90;;;;;;5050863;28;20198;-75
2022/09/23 11:59:37;;;;;;;0.90;0.50;;;31.30;32.30;;;;;;5045787;28;20205;-71
2022/09/23 12:02:16;;;;;;;0.88;0.73;;;31.80;31.40;;;;;;5046562;28;20237;-74
2022/09/23 12:04:47;;;;;;;1.88;1.05;;;33.10;30.60;;;;;;5054937;28;20197;-74
2022/09/23 12:07:19;;;;;;;1.13;0.98;;;34.00;29.70;;;;;;5051859;28;20292;-73
2022/09/23 12:09:56;;;;;;;2.15;1.00;;;34.60;29.30;;;;;;5051145;28;20587;-71
2022/09/23 12:12:29;;;;;;;0.40;0.40;;;35.00;28.60;;;;;;5047974;28;20213;-71
2022/09/23 12:15:01;;;;;;;1.45;0.73;;;34.90;28.50;;;;;;5058267;28;20221;-69
2022/09/23 12:17:55;;;;;;;1.23;0.88;;;34.50;28.90;;;;;;5049861;28;20197;-70
2022/09/23 12:20:46;;;;;;;1.45;0.60;;;33.70;29.20;;;;;;5058905;28;20197;-69
2022/09/23 12:23:30;;;;;;;0.75;0.75;;;32.90;30.00;;;;;;5042562;28;20233;-69
2022/09/23 12:26:00;;;;;;;1.38;0.80;;;32.30;30.10;;;;;;5058319;28;20201;-72
2022/09/23 12:28:32;;;;;;;0.65;0.65;;;31.70;30.40;;;;;;5064727;28;20572;-73
2022/09/23 12:31:01;;;;;;;1.88;0.80;;;31.10;31.10;;;;;;5069559;28;20225;-72
2022/09/23 12:33:32;;;;;;;0.73;0.60;;;30.50;31.80;;;;;;5059911;28;20653;-72
2022/09/23 12:36:03;;;;;;;0.70;0.70;;;30.00;32.20;;;;;;5050494;28;20459;-74
2022/09/23 12:38:35;;;;;;;0.95;0.80;;;29.70;33.10;;;;;;5045121;28;20451;-75
2022/09/23 12:41:18;;;;;;;1.40;1.00;;;29.30;33.20;;;;;;5055305;28;20575;-74
2022/09/23 12:43:55;;;;;;;1.88;0.90;;;29.10;33.60;;;;;;5057668;28;20497;-70
2022/09/23 12:46:24;;;;;;;6.30;1.08;;;29.00;34.00;;;;;;5054246;28;20442;-71
2022/09/23 12:49:21;;;;;;;1.75;1.30;;;28.90;34.60;;;;;;5061263;28;20255;-72
2022/09/23 12:52:14;;;;;;;0.90;0.90;;;28.90;34.60;;;;;;5054043;28;20230;-73
2022/09/23 12:54:42;;;;;;;5.15;1.80;;;29.20;34.20;;;;;;5047638;28;20280;-77
2022/09/23 12:57:12;;;;;;;3.70;0.93;;;28.90;34.00;;;;;;5051424;28;20260;-77
2022/09/23 12:59:59;;;;;;;4.60;1.63;;;28.20;33.80;;;;;;5059748;28;21056;-76
2022/09/23 13:02:31;;;;;;;1.38;0.80;;;27.10;34.70;;;;;;5060448;28;20197;-77
2022/09/23 13:07:59;;;;;;;3.30;1.30;;;26.40;36.50;;;;;;5040580;28;20322;-73
2022/09/23 13:10:31;;;;;;;5.07;0.80;;;26.50;36.00;;;;;;5057614;28;20210;-76
2022/09/23 13:13:01;;;;;;;2.95;0.93;;;26.20;36.20;;;;;;5046837;28;20209;-77
2022/09/23 13:15:31;;;;;;;3.10;1.00;;;25.90;36.80;;;;;;5054597;28;20217;-77
2022/09/23 13:18:25;;;;;;;2.55;0.73;;;25.90;37.20;;;;;;5055126;28;20206;-76
2022/09/23 13:20:55;;;;;;;3.17;1.20;;;26.00;37.30;;;;;;5043245;28;20635;-77
2022/09/23 13:23:24;;;;;;;1.90;1.00;;;26.00;37.80;;;;;;5048798;28;20725;-76
2022/09/23 13:25:53;;;;;;;1.08;0.90;;;25.90;37.80;;;;;;5062508;28;20241;-77